Time;durP1;ratioP1;P1;durP2;ratioP2;P2;SDS_P1;SDS_P2;PMS_P1;PMS_P2;Temp;Humidity;BMP_temperature;BMP_pressure;BME280_temperature;BME280_humidity;BME280_pressure;Samples;Min_cycle;Max_cycle;Signal;HPM_P1;HPM_P2
2024/01/14 00:01:14;;;;;;;;;;;;;;;;;;6032944;23;90113;-69
2024/01/14 00:03:41;;;;;;;;;;;;;;;;;;6032534;23;89818;-68
2024/01/14 00:06:06;;;;;;;;;;;;;;;;;;6032800;23;89006;-69
2024/01/14 00:08:31;;;;;;;;;;;;;;;;;;6033553;23;89847;-68
2024/01/14 00:10:57;;;;;;;;;;;;;;;;;;6033155;23;89698;-68
2024/01/14 00:13:22;;;;;;;;;;;;;;;;;;6032961;23;89532;-68
2024/01/14 00:15:47;;;;;;;;;;;;;;;;;;6032986;23;90636;-68
2024/01/14 00:18:13;;;;;;;;;;;;;;;;;;6036738;23;89518;-68
2024/01/14 00:20:38;;;;;;;;;;;;;;;;;;6033145;23;89545;-67
2024/01/14 00:23:03;;;;;;;;;;;;;;;;;;6033470;23;89407;-69
2024/01/14 00:25:29;;;;;;;;;;;;;;;;;;6033311;23;89401;-68
2024/01/14 00:27:55;;;;;;;;;;;;;;;;;;6033145;23;90309;-69
2024/01/14 00:30:20;;;;;;;;;;;;;;;;;;6033403;23;89264;-68
2024/01/14 00:32:45;;;;;;;;;;;;;;;;;;6033362;23;89058;-69
2024/01/14 00:35:10;;;;;;;;;;;;;;;;;;6032860;23;89661;-69
2024/01/14 00:37:35;;;;;;;;;;;;;;;;;;6033081;23;89755;-69
2024/01/14 00:40:01;;;;;;;;;;;;;;;;;;6036952;23;88997;-69
2024/01/14 00:42:26;;;;;;;;;;;;;;;;;;6033129;23;89229;-69
2024/01/14 00:44:51;;;;;;;;;;;;;;;;;;6033303;23;89300;-68
2024/01/14 00:47:16;;;;;;;;;;;;;;;;;;6033507;23;89024;-68
2024/01/14 00:49:41;;;;;;;;;;;;;;;;;;6033489;23;89966;-69
2024/01/14 00:52:07;;;;;;;;;;;;;;;;;;6032718;23;89593;-68
2024/01/14 00:54:32;;;;;;;;;;;;;;;;;;6033159;23;89669;-67
2024/01/14 00:56:57;;;;;;;;;;;;;;;;;;6032653;23;89519;-68
2024/01/14 00:59:22;;;;;;;;;;;;;;;;;;6058892;23;90431;-69
2024/01/14 01:01:48;;;;;;;;;;;;;;;;;;6031084;23;92276;-68
2024/01/14 01:04:13;;;;;;;;;;;;;;;;;;6032790;23;89015;-67
2024/01/14 01:06:38;;;;;;;;;;;;;;;;;;6033018;23;89636;-68
2024/01/14 01:09:03;;;;;;;;;;;;;;;;;;6033409;23;89221;-69
2024/01/14 01:11:29;;;;;;;;;;;;;;;;;;6033293;23;89406;-69
2024/01/14 01:13:54;;;;;;;;;;;;;;;;;;6055718;23;92107;-68
2024/01/14 01:16:20;;;;;;;;;;;;;;;;;;6032625;23;89160;-68
2024/01/14 01:18:45;;;;;;;;;;;;;;;;;;6032755;23;89541;-68
2024/01/14 01:21:10;;;;;;;;;;;;;;;;;;6036807;23;90234;-69
2024/01/14 01:23:35;;;;;;;;;;;;;;;;;;6033055;23;89684;-68
2024/01/14 01:26:01;;;;;;;;;;;;;;;;;;6033428;23;89831;-68
2024/01/14 01:28:26;;;;;;;;;;;;;;;;;;6033106;23;89363;-68
2024/01/14 01:30:52;;;;;;;;;;;;;;;;;;6032430;23;89258;-69
2024/01/14 01:33:17;;;;;;;;;;;;;;;;;;6034433;23;89609;-69
2024/01/14 01:35:42;;;;;;;;;;;;;;;;;;6033641;23;89525;-68
2024/01/14 01:38:07;;;;;;;;;;;;;;;;;;6033152;23;89313;-68
2024/01/14 01:40:33;;;;;;;;;;;;;;;;;;6032615;23;89924;-69
2024/01/14 01:42:58;;;;;;;;;;;;;;;;;;6036737;23;88961;-69
2024/01/14 01:45:23;;;;;;;;;;;;;;;;;;6032804;23;89573;-69
2024/01/14 01:47:49;;;;;;;;;;;;;;;;;;6055290;23;91696;-69
2024/01/14 01:50:14;;;;;;;;;;;;;;;;;;6033013;23;89136;-69
2024/01/14 01:52:39;;;;;;;;;;;;;;;;;;6032705;23;90553;-68
2024/01/14 01:55:06;;;;;;;;;;;;;;;;;;6033105;23;90540;-68
2024/01/14 01:57:33;;;;;;;;;;;;;;;;;;6033125;23;89615;-68
2024/01/14 01:59:59;;;;;;;;;;;;;;;;;;6032813;23;89623;-69
2024/01/14 02:02:25;;;;;;;;;;;;;;;;;;6032367;23;89472;-67
2024/01/14 02:04:50;;;;;;;;;;;;;;;;;;6033639;23;91177;-68
2024/01/14 02:07:16;;;;;;;;;;;;;;;;;;6033175;23;89710;-69
2024/01/14 02:09:41;;;;;;;;;;;;;;;;;;6033012;23;88966;-69
2024/01/14 02:12:07;;;;;;;;;;;;;;;;;;6055217;23;90742;-69
2024/01/14 02:14:33;;;;;;;;;;;;;;;;;;6032768;23;89484;-69
2024/01/14 02:16:58;;;;;;;;;;;;;;;;;;6032629;23;89316;-69
2024/01/14 02:19:23;;;;;;;;;;;;;;;;;;6054728;23;92635;-69
2024/01/14 02:21:50;;;;;;;;;;;;;;;;;;6032753;23;89464;-68
2024/01/14 02:24:22;;;;;;;;;;;;;;;;;;6033401;23;89364;-69
2024/01/14 02:26:47;;;;;;;;;;;;;;;;;;6036213;23;90547;-68
2024/01/14 02:29:13;;;;;;;;;;;;;;;;;;6032274;23;89376;-68
2024/01/14 02:31:38;;;;;;;;;;;;;;;;;;6032364;23;89781;-68
2024/01/14 02:34:06;;;;;;;;;;;;;;;;;;6032982;23;89766;-69
2024/01/14 02:36:32;;;;;;;;;;;;;;;;;;6032542;23;89906;-68
2024/01/14 02:38:57;;;;;;;;;;;;;;;;;;6033038;23;89400;-68
2024/01/14 02:41:22;;;;;;;;;;;;;;;;;;6032540;23;89337;-68
2024/01/14 02:43:47;;;;;;;;;;;;;;;;;;6032975;23;89205;-69
2024/01/14 02:46:12;;;;;;;;;;;;;;;;;;6033117;23;90151;-69
2024/01/14 02:48:38;;;;;;;;;;;;;;;;;;6036272;23;89386;-69
2024/01/14 02:51:03;;;;;;;;;;;;;;;;;;6032481;23;89524;-68
2024/01/14 02:53:28;;;;;;;;;;;;;;;;;;6032130;23;90990;-69
2024/01/14 02:55:53;;;;;;;;;;;;;;;;;;6030969;23;89511;-67
2024/01/14 02:58:19;;;;;;;;;;;;;;;;;;6033073;23;90318;-67
2024/01/14 03:00:44;;;;;;;;;;;;;;;;;;6031347;23;91522;-68
2024/01/14 03:03:09;;;;;;;;;;;;;;;;;;6030886;23;89923;-69
2024/01/14 03:05:34;;;;;;;;;;;;;;;;;;6033508;23;90875;-68
2024/01/14 03:07:59;;;;;;;;;;;;;;;;;;6058935;23;91984;-68
2024/01/14 03:10:25;;;;;;;;;;;;;;;;;;6033133;23;89595;-68
2024/01/14 03:12:50;;;;;;;;;;;;;;;;;;6032348;23;89219;-68
2024/01/14 03:15:15;;;;;;;;;;;;;;;;;;6033390;23;89239;-69
2024/01/14 03:17:40;;;;;;;;;;;;;;;;;;6031716;23;89677;-69
2024/01/14 03:20:07;;;;;;;;;;;;;;;;;;6032600;23;89491;-68
2024/01/14 03:22:32;;;;;;;;;;;;;;;;;;6054488;23;90263;-68
2024/01/14 03:24:57;;;;;;;;;;;;;;;;;;6032823;23;89741;-68
2024/01/14 03:27:22;;;;;;;;;;;;;;;;;;6032383;23;89444;-69
2024/01/14 03:29:48;;;;;;;;;;;;;;;;;;6037092;23;89277;-69
2024/01/14 03:32:13;;;;;;;;;;;;;;;;;;6033256;23;89333;-68
2024/01/14 03:34:38;;;;;;;;;;;;;;;;;;6032942;23;89248;-67
2024/01/14 03:37:03;;;;;;;;;;;;;;;;;;6032619;23;89518;-69
2024/01/14 03:39:28;;;;;;;;;;;;;;;;;;6031814;23;89550;-69
2024/01/14 03:41:54;;;;;;;;;;;;;;;;;;6032899;23;89406;-69
2024/01/14 03:44:19;;;;;;;;;;;;;;;;;;6033176;23;91546;-69
2024/01/14 03:46:44;;;;;;;;;;;;;;;;;;6033222;23;89488;-68
2024/01/14 03:49:09;;;;;;;;;;;;;;;;;;6033441;23;89044;-69
2024/01/14 03:51:35;;;;;;;;;;;;;;;;;;6036989;23;90018;-68
2024/01/14 03:54:00;;;;;;;;;;;;;;;;;;6033230;23;89717;-69
2024/01/14 03:56:25;;;;;;;;;;;;;;;;;;6033323;23;89652;-68
2024/01/14 03:58:50;;;;;;;;;;;;;;;;;;6033546;23;89222;-68
2024/01/14 04:01:18;;;;;;;;;;;;;;;;;;6033705;23;89506;-68
2024/01/14 04:03:43;;;;;;;;;;;;;;;;;;6033436;23;89483;-69
2024/01/14 04:06:09;;;;;;;;;;;;;;;;;;6033116;23;89588;-68
2024/01/14 04:08:34;;;;;;;;;;;;;;;;;;6055884;23;90728;-68
2024/01/14 04:10:59;;;;;;;;;;;;;;;;;;6033819;23;89364;-68
2024/01/14 04:13:24;;;;;;;;;;;;;;;;;;6037099;23;90403;-69
2024/01/14 04:15:50;;;;;;;;;;;;;;;;;;6033206;23;89886;-69
2024/01/14 04:18:15;;;;;;;;;;;;;;;;;;6033458;23;89998;-69
2024/01/14 04:20:40;;;;;;;;;;;;;;;;;;6033427;23;89618;-69
2024/01/14 04:23:05;;;;;;;;;;;;;;;;;;6033686;23;90205;-69
2024/01/14 04:25:30;;;;;;;;;;;;;;;;;;6032526;23;89775;-68
2024/01/14 04:27:56;;;;;;;;;;;;;;;;;;6033413;23;89377;-68
2024/01/14 04:30:21;;;;;;;;;;;;;;;;;;6032764;23;90523;-68
2024/01/14 04:32:46;;;;;;;;;;;;;;;;;;6031758;23;90662;-69
2024/01/14 04:35:11;;;;;;;;;;;;;;;;;;6036778;23;89591;-69
2024/01/14 04:37:36;;;;;;;;;;;;;;;;;;6055177;23;92107;-67
2024/01/14 04:40:02;;;;;;;;;;;;;;;;;;6055256;23;90397;-68
2024/01/14 04:42:28;;;;;;;;;;;;;;;;;;6033183;23;90261;-69
2024/01/14 04:44:53;;;;;;;;;;;;;;;;;;6032737;23;90170;-68
2024/01/14 04:47:18;;;;;;;;;;;;;;;;;;6033819;23;88975;-68
2024/01/14 04:49:43;;;;;;;;;;;;;;;;;;6033794;23;89584;-67
2024/01/14 04:52:08;;;;;;;;;;;;;;;;;;6033004;23;89402;-69
2024/01/14 04:54:34;;;;;;;;;;;;;;;;;;6032637;23;89397;-68
2024/01/14 04:56:59;;;;;;;;;;;;;;;;;;6035580;23;89535;-69
2024/01/14 04:59:24;;;;;;;;;;;;;;;;;;6032169;23;89498;-69
2024/01/14 05:01:49;;;;;;;;;;;;;;;;;;6055271;23;92395;-69
2024/01/14 05:04:15;;;;;;;;;;;;;;;;;;6033524;23;89392;-68
2024/01/14 05:06:40;;;;;;;;;;;;;;;;;;6033497;23;88986;-68
2024/01/14 05:09:05;;;;;;;;;;;;;;;;;;6033605;23;88977;-68
2024/01/14 05:11:30;;;;;;;;;;;;;;;;;;6034163;23;89346;-68
2024/01/14 05:13:56;;;;;;;;;;;;;;;;;;6033732;23;89597;-69
2024/01/14 05:16:21;;;;;;;;;;;;;;;;;;6037473;23;89488;-69
2024/01/14 05:18:46;;;;;;;;;;;;;;;;;;6033554;23;89061;-68
2024/01/14 05:21:16;;;;;;;;;;;;;;;;;;6033938;23;89739;-69
2024/01/14 05:23:41;;;;;;;;;;;;;;;;;;6034394;23;89987;-69
2024/01/14 05:26:07;;;;;;;;;;;;;;;;;;6031944;23;90281;-68
2024/01/14 05:28:33;;;;;;;;;;;;;;;;;;6033592;23;89531;-68
2024/01/14 05:30:58;;;;;;;;;;;;;;;;;;6033019;23;89466;-69
2024/01/14 05:33:23;;;;;;;;;;;;;;;;;;6033551;23;89080;-69
2024/01/14 05:35:48;;;;;;;;;;;;;;;;;;6034031;23;89663;-69
2024/01/14 05:38:14;;;;;;;;;;;;;;;;;;6035920;23;90492;-68
2024/01/14 05:40:39;;;;;;;;;;;;;;;;;;6033208;23;89828;-69
2024/01/14 05:43:04;;;;;;;;;;;;;;;;;;6033205;23;89495;-68
2024/01/14 05:45:29;;;;;;;;;;;;;;;;;;6033431;23;89703;-69
2024/01/14 05:47:54;;;;;;;;;;;;;;;;;;6033586;23;89699;-68
2024/01/14 05:50:20;;;;;;;;;;;;;;;;;;6033309;23;89770;-68
2024/01/14 05:52:45;;;;;;;;;;;;;;;;;;6033921;23;89297;-69
2024/01/14 05:55:10;;;;;;;;;;;;;;;;;;6033611;23;89722;-75
2024/01/14 05:57:36;;;;;;;;;;;;;;;;;;6052704;23;92604;-69
2024/01/14 06:00:01;;;;;;;;;;;;;;;;;;6035475;23;89572;-68
2024/01/14 06:02:27;;;;;;;;;;;;;;;;;;6032186;23;89541;-69
2024/01/14 06:04:52;;;;;;;;;;;;;;;;;;6031407;23;89314;-69
2024/01/14 06:07:17;;;;;;;;;;;;;;;;;;6032063;23;89837;-69
2024/01/14 06:09:44;;;;;;;;;;;;;;;;;;6032386;23;89465;-68
2024/01/14 06:12:09;;;;;;;;;;;;;;;;;;6054685;23;89419;-68
2024/01/14 06:14:35;;;;;;;;;;;;;;;;;;6032461;23;90380;-68
2024/01/14 06:17:00;;;;;;;;;;;;;;;;;;6031400;23;89947;-69
2024/01/14 06:19:25;;;;;;;;;;;;;;;;;;6032012;23;89167;-69
2024/01/14 06:21:51;;;;;;;;;;;;;;;;;;6034858;23;89654;-68
2024/01/14 06:24:16;;;;;;;;;;;;;;;;;;6033081;23;88958;-69
2024/01/14 06:26:41;;;;;;;;;;;;;;;;;;6031799;23;89706;-68
2024/01/14 06:29:06;;;;;;;;;;;;;;;;;;6031968;23;89513;-68
2024/01/14 06:31:32;;;;;;;;;;;;;;;;;;6031797;23;89747;-68
2024/01/14 06:33:57;;;;;;;;;;;;;;;;;;6032072;23;89773;-69
2024/01/14 06:36:22;;;;;;;;;;;;;;;;;;6032161;23;89824;-68
2024/01/14 06:38:47;;;;;;;;;;;;;;;;;;6031968;23;89953;-68
2024/01/14 06:41:19;;;;;;;;;;;;;;;;;;6054775;23;92577;-68
2024/01/14 06:43:45;;;;;;;;;;;;;;;;;;6036225;23;90286;-69
2024/01/14 06:46:10;;;;;;;;;;;;;;;;;;6031717;23;89687;-69
2024/01/14 06:48:35;;;;;;;;;;;;;;;;;;6032749;23;89757;-68
2024/01/14 06:51:01;;;;;;;;;;;;;;;;;;6032071;23;89357;-68
2024/01/14 06:53:27;;;;;;;;;;;;;;;;;;6054939;23;93217;-68
2024/01/14 06:55:52;;;;;;;;;;;;;;;;;;6031203;23;89533;-69
2024/01/14 06:58:17;;;;;;;;;;;;;;;;;;6032099;23;88939;-68
2024/01/14 07:00:43;;;;;;;;;;;;;;;;;;6031316;23;89690;-68
2024/01/14 07:03:08;;;;;;;;;;;;;;;;;;6035697;23;90085;-68
2024/01/14 07:05:33;;;;;;;;;;;;;;;;;;6031997;23;89658;-69
2024/01/14 07:07:58;;;;;;;;;;;;;;;;;;6053427;23;92163;-68
2024/01/14 07:10:24;;;;;;;;;;;;;;;;;;6031728;23;89448;-69
2024/01/14 07:12:49;;;;;;;;;;;;;;;;;;6031377;23;90625;-68
2024/01/14 07:15:14;;;;;;;;;;;;;;;;;;6032103;23;90143;-68
2024/01/14 07:17:39;;;;;;;;;;;;;;;;;;6033139;23;90451;-67
2024/01/14 07:20:05;;;;;;;;;;;;;;;;;;6055014;23;91116;-68
2024/01/14 07:22:30;;;;;;;;;;;;;;;;;;6055541;23;91898;-68
2024/01/14 07:24:55;;;;;;;;;;;;;;;;;;6036130;23;89319;-68
2024/01/14 07:27:20;;;;;;;;;;;;;;;;;;6032783;23;89322;-68
2024/01/14 07:29:46;;;;;;;;;;;;;;;;;;6032511;23;89433;-74
2024/01/14 07:32:11;;;;;;;;;;;;;;;;;;6033433;23;89211;-74
2024/01/14 07:34:38;;;;;;;;;;;;;;;;;;6033345;23;89250;-73
2024/01/14 07:37:03;;;;;;;;;;;;;;;;;;6056112;23;89639;-76
2024/01/14 07:39:29;;;;;;;;;;;;;;;;;;6033842;23;90031;-75
2024/01/14 07:41:54;;;;;;;;;;;;;;;;;;6033868;23;89282;-75
2024/01/14 07:44:19;;;;;;;;;;;;;;;;;;6033550;23;90373;-75
2024/01/14 07:46:45;;;;;;;;;;;;;;;;;;6058490;23;90115;-75
2024/01/14 07:49:10;;;;;;;;;;;;;;;;;;6033049;23;89157;-74
2024/01/14 07:51:35;;;;;;;;;;;;;;;;;;6032905;23;89351;-74
2024/01/14 07:54:01;;;;;;;;;;;;;;;;;;6033363;23;89508;-74
2024/01/14 07:56:26;;;;;;;;;;;;;;;;;;6034373;23;89468;-75
2024/01/14 07:58:51;;;;;;;;;;;;;;;;;;6034874;23;89170;-75
2024/01/14 08:01:16;;;;;;;;;;;;;;;;;;6036370;23;89920;-74
2024/01/14 08:03:41;;;;;;;;;;;;;;;;;;6055055;23;89888;-74
2024/01/14 08:06:07;;;;;;;;;;;;;;;;;;6031976;23;89594;-75
2024/01/14 08:08:32;;;;;;;;;;;;;;;;;;6033612;23;91909;-72
2024/01/14 08:10:57;;;;;;;;;;;;;;;;;;6032922;23;89821;-72
2024/01/14 08:13:22;;;;;;;;;;;;;;;;;;6033262;23;89727;-73
2024/01/14 08:15:48;;;;;;;;;;;;;;;;;;6030991;23;89927;-72
2024/01/14 08:18:13;;;;;;;;;;;;;;;;;;6033196;23;90106;-74
2024/01/14 08:20:38;;;;;;;;;;;;;;;;;;6033053;23;90270;-73
2024/01/14 08:23:05;;;;;;;;;;;;;;;;;;6032878;23;89210;-73
2024/01/14 08:25:30;;;;;;;;;;;;;;;;;;6032775;23;90271;-73
2024/01/14 08:27:55;;;;;;;;;;;;;;;;;;6054293;23;92285;-73
2024/01/14 08:30:21;;;;;;;;;;;;;;;;;;6052733;23;90791;-72
2024/01/14 08:32:46;;;;;;;;;;;;;;;;;;6032664;23;90249;-72
2024/01/14 08:35:11;;;;;;;;;;;;;;;;;;6033668;23;89004;-72
2024/01/14 08:37:37;;;;;;;;;;;;;;;;;;6032464;23;90594;-72
2024/01/14 08:40:02;;;;;;;;;;;;;;;;;;6032410;23;90192;-72
2024/01/14 08:42:28;;;;;;;;;;;;;;;;;;6032480;23;89660;-71
2024/01/14 08:44:53;;;;;;;;;;;;;;;;;;6055079;23;92664;-72
2024/01/14 08:47:19;;;;;;;;;;;;;;;;;;6033093;23;89744;-76
2024/01/14 08:49:45;;;;;;;;;;;;;;;;;;6034562;23;89233;-71
2024/01/14 08:52:11;;;;;;;;;;;;;;;;;;6037051;23;90222;-70
2024/01/14 08:54:36;;;;;;;;;;;;;;;;;;6033192;23;89412;-71
2024/01/14 08:57:01;;;;;;;;;;;;;;;;;;6032981;23;89755;-71
2024/01/14 08:59:27;;;;;;;;;;;;;;;;;;6054664;23;90281;-73
2024/01/14 09:01:52;;;;;;;;;;;;;;;;;;6057268;23;91414;-72
2024/01/14 09:04:17;;;;;;;;;;;;;;;;;;6033920;23;89503;-72
2024/01/14 09:06:43;;;;;;;;;;;;;;;;;;6033639;23;89203;-73
2024/01/14 09:09:08;;;;;;;;;;;;;;;;;;6033308;23;89711;-73
2024/01/14 09:11:33;;;;;;;;;;;;;;;;;;6057997;23;92204;-73
2024/01/14 09:13:58;;;;;;;;;;;;;;;;;;5994073;23;89806;-72
2024/01/14 09:16:24;;;;;;;;;;;;;;;;;;6042073;23;90537;-73
2024/01/14 09:18:49;;;;;;;;;;;;;;;;;;6032636;23;89582;-70
2024/01/14 09:21:14;;;;;;;;;;;;;;;;;;6032187;23;89615;-73
2024/01/14 09:23:39;;;;;;;;;;;;;;;;;;6032700;23;89724;-73
2024/01/14 09:26:05;;;;;;;;;;;;;;;;;;6031166;23;89339;-73
2024/01/14 09:28:31;;;;;;;;;;;;;;;;;;6031632;23;89304;-73
2024/01/14 09:30:56;;;;;;;;;;;;;;;;;;6029595;23;91549;-77
2024/01/14 09:33:21;;;;;;;;;;;;;;;;;;6033524;23;91265;-73
2024/01/14 09:35:46;;;;;;;;;;;;;;;;;;6029637;23;92790;-73
2024/01/14 09:38:12;;;;;;;;;;;;;;;;;;6030592;23;89238;-72
2024/01/14 09:40:37;;;;;;;;;;;;;;;;;;6032467;23;89649;-70
2024/01/14 09:43:04;;;;;;;;;;;;;;;;;;6033214;23;89237;-68
2024/01/14 09:45:33;;;;;;;;;;;;;;;;;;6031429;23;90459;-68
2024/01/14 09:47:58;;;;;;;;;;;;;;;;;;6032868;23;89468;-72
2024/01/14 09:50:24;;;;;;;;;;;;;;;;;;6030535;23;91735;-71
2024/01/14 09:52:51;;;;;;;;;;;;;;;;;;6032415;23;89624;-72
2024/01/14 09:55:16;;;;;;;;;;;;;;;;;;6034129;23;89452;-72
2024/01/14 09:57:44;;;;;;;;;;;;;;;;;;6031611;23;89378;-71
2024/01/14 10:00:09;;;;;;;;;;;;;;;;;;6032274;23;89691;-71
2024/01/14 10:02:34;;;;;;;;;;;;;;;;;;6034251;23;89681;-72
2024/01/14 10:05:00;;;;;;;;;;;;;;;;;;6033813;23;89246;-71
2024/01/14 10:07:26;;;;;;;;;;;;;;;;;;6034050;23;89040;-71
2024/01/14 10:09:52;;;;;;;;;;;;;;;;;;6033790;23;89637;-72
2024/01/14 10:12:18;;;;;;;;;;;;;;;;;;6034533;23;89534;-71
2024/01/14 10:14:44;;;;;;;;;;;;;;;;;;6032782;23;89429;-71
2024/01/14 10:17:12;;;;;;;;;;;;;;;;;;6037052;23;89632;-71
2024/01/14 10:19:37;;;;;;;;;;;;;;;;;;6033258;23;88974;-72
2024/01/14 10:22:03;;;;;;;;;;;;;;;;;;6033574;23;89798;-71
2024/01/14 10:24:28;;;;;;;;;;;;;;;;;;6031598;23;89557;-72
2024/01/14 10:26:54;;;;;;;;;;;;;;;;;;6033472;23;89386;-70
2024/01/14 10:29:19;;;;;;;;;;;;;;;;;;6031176;23;89699;-70
2024/01/14 10:31:44;;;;;;;;;;;;;;;;;;6032468;23;90660;-74
2024/01/14 10:34:09;;;;;;;;;;;;;;;;;;6031724;23;89433;-71
2024/01/14 10:36:36;;;;;;;;;;;;;;;;;;6031934;23;90048;-71
2024/01/14 10:39:03;;;;;;;;;;;;;;;;;;6035447;23;89348;-72
2024/01/14 10:41:28;;;;;;;;;;;;;;;;;;6032272;23;89508;-72
2024/01/14 10:43:54;;;;;;;;;;;;;;;;;;6031695;23;89187;-71
2024/01/14 10:46:20;;;;;;;;;;;;;;;;;;6033843;23;89816;-73
2024/01/14 10:48:52;;;;;;;;;;;;;;;;;;6032121;23;89458;-72
2024/01/14 10:51:20;;;;;;;;;;;;;;;;;;6032850;23;89850;-69
2024/01/14 10:53:48;;;;;;;;;;;;;;;;;;6030021;23;89663;-69
2024/01/14 10:56:15;;;;;;;;;;;;;;;;;;6029308;23;92269;-70
2024/01/14 10:58:41;;;;;;;;;;;;;;;;;;6030998;23;89653;-69
2024/01/14 11:01:07;;;;;;;;;;;;;;;;;;6034945;23;88989;-71
2024/01/14 11:03:33;;;;;;;;;;;;;;;;;;6029622;23;90193;-78
2024/01/14 11:05:58;;;;;;;;;;;;;;;;;;6031784;23;89165;-71
2024/01/14 11:08:23;;;;;;;;;;;;;;;;;;6032697;23;89747;-75
2024/01/14 11:10:50;;;;;;;;;;;;;;;;;;6032789;23;89599;-73
2024/01/14 11:13:21;;;;;;;;;;;;;;;;;;6033863;23;89007;-72
2024/01/14 11:16:05;;;;;;;;;;;;;;;;;;6034961;23;89067;-72
2024/01/14 11:18:33;;;;;;;;;;;;;;;;;;6034671;23;89257;-76
2024/01/14 11:21:21;;;;;;;;;;;;;;;;;;6034585;23;89619;-72
2024/01/14 11:23:47;;;;;;;;;;;;;;;;;;6036547;23;89227;-76
2024/01/14 11:26:14;;;;;;;;;;;;;;;;;;6031911;23;90903;-75
2024/01/14 11:28:44;;;;;;;;;;;;;;;;;;6033794;23;89674;-76
2024/01/14 11:31:09;;;;;;;;;;;;;;;;;;6033577;23;89261;-69
2024/01/14 11:33:48;;;;;;;;;;;;;;;;;;6032523;23;89394;-71
2024/01/14 11:36:33;;;;;;;;;;;;;;;;;;6035461;23;90838;-77
2024/01/14 11:39:04;;;;;;;;;;;;;;;;;;6031477;23;90402;-72
2024/01/14 11:41:29;;;;;;;;;;;;;;;;;;6032861;23;90041;-71
2024/01/14 11:44:01;;;;;;;;;;;;;;;;;;6036348;23;89667;-68
2024/01/14 11:46:40;;;;;;;;;;;;;;;;;;6033575;23;89536;-69
2024/01/14 11:49:09;;;;;;;;;;;;;;;;;;6033085;23;89609;-68
2024/01/14 11:51:37;;;;;;;;;;;;;;;;;;6032296;23;89216;-70
2024/01/14 11:54:09;;;;;;;;;;;;;;;;;;6030294;23;89898;-71
2024/01/14 11:56:34;;;;;;;;;;;;;;;;;;6032936;23;89518;-69
2024/01/14 11:58:59;;;;;;;;;;;;;;;;;;6034214;23;89857;-73
2024/01/14 12:01:28;;;;;;;;;;;;;;;;;;6034738;23;89020;-72
2024/01/14 12:04:03;;;;;;;;;;;;;;;;;;6033221;23;89718;-66
2024/01/14 12:06:29;;;;;;;;;;;;;;;;;;6032260;23;90141;-67
2024/01/14 12:09:03;;;;;;;;;;;;;;;;;;6029959;23;90576;-68
2024/01/14 12:11:28;;;;;;;;;;;;;;;;;;6029623;23;89783;-73
2024/01/14 12:13:54;;;;;;;;;;;;;;;;;;6030195;23;89202;-73
2024/01/14 12:16:19;;;;;;;;;;;;;;;;;;6035972;23;91075;-76
2024/01/14 12:18:45;;;;;;;;;;;;;;;;;;6035424;23;90037;-74
2024/01/14 12:21:11;;;;;;;;;;;;;;;;;;6036102;23;88948;-76
2024/01/14 12:23:36;;;;;;;;;;;;;;;;;;6035423;23;90926;-74
2024/01/14 12:26:05;;;;;;;;;;;;;;;;;;6032412;23;89558;-71
2024/01/14 12:28:30;;;;;;;;;;;;;;;;;;6034397;23;89859;-76
2024/01/14 12:30:59;;;;;;;;;;;;;;;;;;6029326;23;90773;-71
2024/01/14 12:33:25;;;;;;;;;;;;;;;;;;6028788;23;90490;-73
2024/01/14 12:35:50;;;;;;;;;;;;;;;;;;6028787;23;91664;-71
2024/01/14 12:38:16;;;;;;;;;;;;;;;;;;6030156;23;92156;-70
2024/01/14 12:40:42;;;;;;;;;;;;;;;;;;6030516;23;88977;-73
2024/01/14 12:43:07;;;;;;;;;;;;;;;;;;6029497;23;89975;-73
2024/01/14 12:45:33;;;;;;;;;;;;;;;;;;6030478;23;89543;-72
2024/01/14 12:48:00;;;;;;;;;;;;;;;;;;6030348;23;89512;-73
2024/01/14 12:50:26;;;;;;;;;;;;;;;;;;6033071;23;92512;-73
2024/01/14 12:52:55;;;;;;;;;;;;;;;;;;6031747;23;89611;-71
2024/01/14 12:55:21;;;;;;;;;;;;;;;;;;6031566;23;89633;-72
2024/01/14 12:57:46;;;;;;;;;;;;;;;;;;6030716;23;91859;-72
2024/01/14 13:00:11;;;;;;;;;;;;;;;;;;6032886;23;89086;-73
2024/01/14 13:02:36;;;;;;;;;;;;;;;;;;6030272;23;90567;-71
2024/01/14 13:05:03;;;;;;;;;;;;;;;;;;6030448;23;89282;-72
2024/01/14 13:07:28;;;;;;;;;;;;;;;;;;6029677;23;88941;-71
2024/01/14 13:09:53;;;;;;;;;;;;;;;;;;6028210;23;92455;-72
2024/01/14 13:12:19;;;;;;;;;;;;;;;;;;6033645;23;90552;-71
2024/01/14 13:14:44;;;;;;;;;;;;;;;;;;6031654;23;90858;-72
2024/01/14 13:17:10;;;;;;;;;;;;;;;;;;6033795;23;89548;-71
2024/01/14 13:19:35;;;;;;;;;;;;;;;;;;6035205;23;89557;-72
2024/01/14 13:22:00;;;;;;;;;;;;;;;;;;6033741;23;90268;-72
2024/01/14 13:24:25;;;;;;;;;;;;;;;;;;6033088;23;89627;-71
2024/01/14 13:26:50;;;;;;;;;;;;;;;;;;6033008;23;89689;-72
2024/01/14 13:29:16;;;;;;;;;;;;;;;;;;6034087;23;89380;-72
2024/01/14 13:31:41;;;;;;;;;;;;;;;;;;6035509;23;90388;-72
2024/01/14 13:34:06;;;;;;;;;;;;;;;;;;6031216;23;90451;-72
2024/01/14 13:36:32;;;;;;;;;;;;;;;;;;6033053;23;89396;-72
2024/01/14 13:39:01;;;;;;;;;;;;;;;;;;6033061;23;89172;-73
2024/01/14 13:41:26;;;;;;;;;;;;;;;;;;6032933;23;89680;-72
2024/01/14 13:43:51;;;;;;;;;;;;;;;;;;6033261;23;89499;-72
2024/01/14 13:46:16;;;;;;;;;;;;;;;;;;6033610;23;88964;-72
2024/01/14 13:48:41;;;;;;;;;;;;;;;;;;6033095;23;89935;-73
2024/01/14 13:51:07;;;;;;;;;;;;;;;;;;6032536;23;89199;-72
2024/01/14 13:53:32;;;;;;;;;;;;;;;;;;6036922;23;89174;-71
2024/01/14 13:55:57;;;;;;;;;;;;;;;;;;6033573;23;89912;-72
2024/01/14 13:58:22;;;;;;;;;;;;;;;;;;6033620;23;89260;-72
2024/01/14 14:00:48;;;;;;;;;;;;;;;;;;6033958;23;89893;-72
2024/01/14 14:03:13;;;;;;;;;;;;;;;;;;6032742;23;89770;-71
2024/01/14 14:05:38;;;;;;;;;;;;;;;;;;6033867;23;88974;-72
2024/01/14 14:08:03;;;;;;;;;;;;;;;;;;6034844;23;89416;-72
2024/01/14 14:10:29;;;;;;;;;;;;;;;;;;6034453;23;89328;-72
2024/01/14 14:12:54;;;;;;;;;;;;;;;;;;6031339;23;89094;-72
2024/01/14 14:15:19;;;;;;;;;;;;;;;;;;6036559;23;89644;-71
2024/01/14 14:17:44;;;;;;;;;;;;;;;;;;6032586;23;89680;-72
2024/01/14 14:20:10;;;;;;;;;;;;;;;;;;6032932;23;89712;-72
2024/01/14 14:22:35;;;;;;;;;;;;;;;;;;6031090;23;91860;-72
2024/01/14 14:25:01;;;;;;;;;;;;;;;;;;6033080;23;89524;-72
2024/01/14 14:27:26;;;;;;;;;;;;;;;;;;6033259;23;89650;-72
2024/01/14 14:29:51;;;;;;;;;;;;;;;;;;6032678;23;89223;-72
2024/01/14 14:32:17;;;;;;;;;;;;;;;;;;6033082;23;89892;-72
2024/01/14 14:34:42;;;;;;;;;;;;;;;;;;6034520;23;91074;-73
2024/01/14 14:37:08;;;;;;;;;;;;;;;;;;6036822;23;89766;-71
2024/01/14 14:39:33;;;;;;;;;;;;;;;;;;6032485;23;89107;-71
2024/01/14 14:41:58;;;;;;;;;;;;;;;;;;6032877;23;89439;-71
2024/01/14 14:44:23;;;;;;;;;;;;;;;;;;6031099;23;90054;-72
2024/01/14 14:46:48;;;;;;;;;;;;;;;;;;6033536;23;90220;-72
2024/01/14 14:49:14;;;;;;;;;;;;;;;;;;6032854;23;89382;-72
2024/01/14 14:51:40;;;;;;;;;;;;;;;;;;6033059;23;89553;-72
2024/01/14 14:54:06;;;;;;;;;;;;;;;;;;6033036;23;89926;-71
2024/01/14 14:56:31;;;;;;;;;;;;;;;;;;6035010;23;89876;-72
2024/01/14 14:58:57;;;;;;;;;;;;;;;;;;6038638;23;89505;-72
2024/01/14 15:01:22;;;;;;;;;;;;;;;;;;6033144;23;89279;-73
2024/01/14 15:03:47;;;;;;;;;;;;;;;;;;6032389;23;89026;-71
2024/01/14 15:06:12;;;;;;;;;;;;;;;;;;6033016;23;89538;-72
2024/01/14 15:08:38;;;;;;;;;;;;;;;;;;6032818;23;89093;-73
2024/01/14 15:11:03;;;;;;;;;;;;;;;;;;6030684;23;90371;-72
2024/01/14 15:13:28;;;;;;;;;;;;;;;;;;6030401;23;90792;-72
2024/01/14 15:15:53;;;;;;;;;;;;;;;;;;6033067;23;89514;-72
2024/01/14 15:18:18;;;;;;;;;;;;;;;;;;6033002;23;89012;-72
2024/01/14 15:20:44;;;;;;;;;;;;;;;;;;6036303;23;89570;-72
2024/01/14 15:23:11;;;;;;;;;;;;;;;;;;6032730;23;89450;-72
2024/01/14 15:25:36;;;;;;;;;;;;;;;;;;6032627;23;90241;-72
2024/01/14 15:28:01;;;;;;;;;;;;;;;;;;6032527;23;89799;-72
2024/01/14 15:30:26;;;;;;;;;;;;;;;;;;6031988;23;90665;-72
2024/01/14 15:32:52;;;;;;;;;;;;;;;;;;6031994;23;89440;-72
2024/01/14 15:35:17;;;;;;;;;;;;;;;;;;6031090;23;90179;-72
2024/01/14 15:37:42;;;;;;;;;;;;;;;;;;6033798;23;89096;-72
2024/01/14 15:40:08;;;;;;;;;;;;;;;;;;6037698;23;90762;-72
2024/01/14 15:42:33;;;;;;;;;;;;;;;;;;6034024;23;88935;-72
2024/01/14 15:44:59;;;;;;;;;;;;;;;;;;6034165;23;89644;-72
2024/01/14 15:47:24;;;;;;;;;;;;;;;;;;6033591;23;91411;-72
2024/01/14 15:49:49;;;;;;;;;;;;;;;;;;6033985;23;89017;-72
2024/01/14 15:52:15;;;;;;;;;;;;;;;;;;6033243;23;88994;-73
2024/01/14 15:54:40;;;;;;;;;;;;;;;;;;6033816;23;89254;-71
2024/01/14 15:57:05;;;;;;;;;;;;;;;;;;6033666;23;88925;-73
2024/01/14 15:59:30;;;;;;;;;;;;;;;;;;6033756;23;89651;-71
2024/01/14 16:01:55;;;;;;;;;;;;;;;;;;6037086;23;89121;-72
2024/01/14 16:04:21;;;;;;;;;;;;;;;;;;6033862;23;89664;-73
2024/01/14 16:06:46;;;;;;;;;;;;;;;;;;6033929;23;89698;-72
2024/01/14 16:09:11;;;;;;;;;;;;;;;;;;6034154;23;89679;-72
2024/01/14 16:11:37;;;;;;;;;;;;;;;;;;6032150;23;91317;-72
2024/01/14 16:14:02;;;;;;;;;;;;;;;;;;6033489;23;90303;-72
2024/01/14 16:16:29;;;;;;;;;;;;;;;;;;6031912;23;91205;-73
2024/01/14 16:18:56;;;;;;;;;;;;;;;;;;6031505;23;90757;-72
2024/01/14 16:21:21;;;;;;;;;;;;;;;;;;6034302;23;91553;-72
2024/01/14 16:23:46;;;;;;;;;;;;;;;;;;6037604;23;89471;-71
2024/01/14 16:26:12;;;;;;;;;;;;;;;;;;6031170;23;90137;-71
2024/01/14 16:28:39;;;;;;;;;;;;;;;;;;6033800;23;90629;-72
2024/01/14 16:31:04;;;;;;;;;;;;;;;;;;6033925;23;89987;-72
2024/01/14 16:33:29;;;;;;;;;;;;;;;;;;6034751;23;89316;-71
2024/01/14 16:35:54;;;;;;;;;;;;;;;;;;6033069;23;89405;-71